Eot Spar — WDE9193 — position and weather

sailwx.info

Track history (hours):
 
Tides and Currents Weather Stations Pressure Air Temp Water Temp Dewpoint Dewpoint Depression Visibility Wind Speed Wind Dir Waves Ship Positions

Eot Spar

More information available from US FCC via Universal Licensing System and Coast Guard Vessel Documentation Center.

Last reported at 2014-Aug-29 01:26 UTC. Time now 2014-Aug-29 01:37 UTC.
Position N 38°43' W 026°55'.

Length 92 m; draft 4.4 m.

Type: Cargo ship. MMSI: 338589000.

Date/timePositionNaut miles runAvg speedWind from/ knotsBaromVisibWave heightAir tempDewpointWater temp
2014-Aug-29 01:26N 38°43' W 026°55'2 2.1
2014-Aug-29 00:33N 38°45' W 026°55'2 2.0
2014-Aug-28 23:34N 38°46' W 026°57'1 0.3
2014-Aug-28 21:32N 38°47' W 026°57'2 1.9
2014-Aug-28 20:33N 38°45' W 026°56'2 2.2
2014-Aug-28 19:33N 38°43' W 026°55'2 2.5
2014-Aug-28 18:33N 38°45' W 026°55'2 2.3
2014-Aug-28 17:33N 38°47' W 026°57'2 2.2
2014-Aug-28 16:33N 38°45' W 026°59'5 4.8
2014-Aug-28 15:32N 38°40' W 026°57'9 9.2
2014-Aug-28 14:33N 38°34' W 026°49'1110.6
2014-Aug-28 13:33N 38°26' W 026°40'1111.2
2014-Aug-28 12:33N 38°17' W 026°31'1933.0
2014-Aug-28 12:00N 38°06' W 026°12'818.5 999 / 21017.8 24.021.125.2
2014-Aug-28 11:33N 38°09' W 026°21'1110.6
2014-Aug-28 10:33N 38°01' W 026°12'1111.0
2014-Aug-28 09:33N 37°53' W 026°03'1110.8
2014-Aug-28 08:33N 37°45' W 025°54'1010.0
2014-Aug-28 07:33N 37°39' W 025°44'1010.1
2014-Aug-28 06:33N 37°32' W 025°34'10 9.7
2014-Aug-28 05:33N 37°26' W 025°25'10 9.9
2014-Aug-28 04:34N 37°19' W 025°16'10 9.8
2014-Aug-28 03:33N 37°13' W 025°07'1110.6
2014-Aug-28 02:33N 37°05' W 024°57'1111.3
2014-Aug-28 01:33N 36°57' W 024°47'1212.2
2014-Aug-28 00:33N 36°48' W 024°37'1212.2
2014-Aug-27 23:34N 36°39' W 024°26'1212.0
2014-Aug-27 22:33N 36°31' W 024°16'1211.7
2014-Aug-27 21:33N 36°22' W 024°06'1211.6
2014-Aug-27 20:30N 36°14' W 023°56'3614.4
2014-Aug-27 18:00N 35°48' W 023°24'26110.9 250 / 91018.510.8 1.025.023.6-25.6
2014-Aug-26 18:00N 32°42' W 019°42'   050 / 91020.310.8 1.024.521.7-24.8
2014-Aug-23 12:00N 29°36' W 016°36'143 7.9 050 / 151020.110.8 1.023.020.823.6
2014-Aug-22 18:00N 31°24' W 018°24'383 8.0 080 / 51020.510.8 0.526.021.7-24.6
2014-Aug-20 18:00N 36°06' W 023°36'1317.9 040 / 21021.710.8 0.527.021.3-26.4
2014-Aug-20 17:15N 36°10' W 023°52'6 7.8
2014-Aug-20 16:32N 36°14' W 023°57'8 7.8
2014-Aug-20 15:33N 36°20' W 024°03'8 8.0
2014-Aug-20 14:33N 36°26' W 024°10'8 7.9
2014-Aug-20 13:33N 36°31' W 024°17'8 7.8
2014-Aug-20 12:33N 36°37' W 024°23'8 7.9
2014-Aug-20 11:33N 36°43' W 024°30'8 7.5
2014-Aug-20 10:33N 36°48' W 024°37'7 7.4
2014-Aug-20 09:34N 36°54' W 024°43'8 7.9
2014-Aug-20 08:34N 36°59' W 024°50'7 7.4
2014-Aug-20 07:33N 37°05' W 024°56'7 7.1
2014-Aug-20 06:33N 37°10' W 025°02'7 7.4
2014-Aug-20 05:34N 37°15' W 025°09'8 7.6
2014-Aug-20 04:33N 37°20' W 025°16'8 7.7
2014-Aug-20 03:33N 37°25' W 025°24'8 7.6
2014-Aug-20 02:33N 37°30' W 025°31'8 7.8
2014-Aug-20 01:34N 37°35' W 025°38'8 7.9
2014-Aug-20 00:33N 37°40' W 025°46'9 8.5
2014-Aug-19 23:33N 37°46' W 025°54'8 8.5
2014-Aug-19 22:34N 37°52' W 026°02'8 8.3
2014-Aug-19 21:33N 37°58' W 026°09'8 8.2
2014-Aug-19 20:33N 38°04' W 026°16'8 8.1
2014-Aug-19 19:33N 38°10' W 026°22'8 8.0
2014-Aug-19 18:34N 38°16' W 026°29'8 7.9
2014-Aug-19 17:33N 38°22' W 026°36'8 8.3
2014-Aug-19 16:33N 38°28' W 026°43'8 7.8
2014-Aug-19 15:33N 38°34' W 026°50'8 7.9
2014-Aug-19 14:32N 38°40' W 026°56'6 4.8
2014-Aug-19 13:18N 38°43' W 027°03'0 0.0
2014-Aug-19 12:27N 38°43' W 027°03'0 0.0
2014-Aug-19 11:18N 38°43' W 027°03'0 0.0
2014-Aug-19 10:27N 38°43' W 027°03'0 0.0
2014-Aug-19 09:33N 38°43' W 027°03'0 0.0
2014-Aug-19 08:33N 38°43' W 027°03'0 0.0
2014-Aug-19 07:33N 38°43' W 027°03'3 2.6
2014-Aug-19 06:33N 38°42' W 026°60'2 2.3
2014-Aug-19 05:32N 38°45' W 026°60'6 6.6
2014-Aug-19 04:33N 38°49' W 027°05'8 8.3
2014-Aug-19 03:33N 38°50' W 027°16'11 8.0
2014-Aug-19 02:14N 38°52' W 027°29'5 7.9
2014-Aug-19 01:33N 38°52' W 027°36'  
Track history (hours):
 
Tides and Currents Weather Stations Pressure Air Temp Water Temp Dewpoint Dewpoint Depression Visibility Wind Speed Wind Dir Waves Ship Positions

Eot Spar

More information available from US FCC via Universal Licensing System and Coast Guard Vessel Documentation Center.

Last reported at 2014-Aug-29 01:26 UTC. Time now 2014-Aug-29 01:37 UTC.
Position N 38°43' W 026°55'.

Length 92 m; draft 4.4 m.

Type: Cargo ship. MMSI: 338589000.

Date/timePositionNaut miles runAvg speedWind from/ knotsBaromVisibWave heightAir tempDewpointWater temp
2014-Aug-29 01:26N 38°43' W 026°55'2 2.1
2014-Aug-29 00:33N 38°45' W 026°55'2 2.0
2014-Aug-28 23:34N 38°46' W 026°57'1 0.3
2014-Aug-28 21:32N 38°47' W 026°57'2 1.9
2014-Aug-28 20:33N 38°45' W 026°56'2 2.2
2014-Aug-28 19:33N 38°43' W 026°55'2 2.5
2014-Aug-28 18:33N 38°45' W 026°55'2 2.3
2014-Aug-28 17:33N 38°47' W 026°57'2 2.2
2014-Aug-28 16:33N 38°45' W 026°59'5 4.8
2014-Aug-28 15:32N 38°40' W 026°57'9 9.2
2014-Aug-28 14:33N 38°34' W 026°49'1110.6
2014-Aug-28 13:33N 38°26' W 026°40'1111.2
2014-Aug-28 12:33N 38°17' W 026°31'1933.0
2014-Aug-28 12:00N 38°06' W 026°12'818.5 999 / 21017.8 24.021.125.2
2014-Aug-28 11:33N 38°09' W 026°21'1110.6
2014-Aug-28 10:33N 38°01' W 026°12'1111.0
2014-Aug-28 09:33N 37°53' W 026°03'1110.8
2014-Aug-28 08:33N 37°45' W 025°54'1010.0
2014-Aug-28 07:33N 37°39' W 025°44'1010.1
2014-Aug-28 06:33N 37°32' W 025°34'10 9.7
2014-Aug-28 05:33N 37°26' W 025°25'10 9.9
2014-Aug-28 04:34N 37°19' W 025°16'10 9.8
2014-Aug-28 03:33N 37°13' W 025°07'1110.6
2014-Aug-28 02:33N 37°05' W 024°57'1111.3
2014-Aug-28 01:33N 36°57' W 024°47'1212.2
2014-Aug-28 00:33N 36°48' W 024°37'1212.2
2014-Aug-27 23:34N 36°39' W 024°26'1212.0
2014-Aug-27 22:33N 36°31' W 024°16'1211.7
2014-Aug-27 21:33N 36°22' W 024°06'1211.6
2014-Aug-27 20:30N 36°14' W 023°56'3614.4
2014-Aug-27 18:00N 35°48' W 023°24'26110.9 250 / 91018.510.8 1.025.023.6-25.6
2014-Aug-26 18:00N 32°42' W 019°42'   050 / 91020.310.8 1.024.521.7-24.8
2014-Aug-23 12:00N 29°36' W 016°36'143 7.9 050 / 151020.110.8 1.023.020.823.6
2014-Aug-22 18:00N 31°24' W 018°24'383 8.0 080 / 51020.510.8 0.526.021.7-24.6
2014-Aug-20 18:00N 36°06' W 023°36'1317.9 040 / 21021.710.8 0.527.021.3-26.4
2014-Aug-20 17:15N 36°10' W 023°52'6 7.8
2014-Aug-20 16:32N 36°14' W 023°57'8 7.8
2014-Aug-20 15:33N 36°20' W 024°03'8 8.0
2014-Aug-20 14:33N 36°26' W 024°10'8 7.9
2014-Aug-20 13:33N 36°31' W 024°17'8 7.8
2014-Aug-20 12:33N 36°37' W 024°23'8 7.9
2014-Aug-20 11:33N 36°43' W 024°30'8 7.5
2014-Aug-20 10:33N 36°48' W 024°37'7 7.4
2014-Aug-20 09:34N 36°54' W 024°43'8 7.9
2014-Aug-20 08:34N 36°59' W 024°50'7 7.4
2014-Aug-20 07:33N 37°05' W 024°56'7 7.1
2014-Aug-20 06:33N 37°10' W 025°02'7 7.4
2014-Aug-20 05:34N 37°15' W 025°09'8 7.6
2014-Aug-20 04:33N 37°20' W 025°16'8 7.7
2014-Aug-20 03:33N 37°25' W 025°24'8 7.6
2014-Aug-20 02:33N 37°30' W 025°31'8 7.8
2014-Aug-20 01:34N 37°35' W 025°38'8 7.9
2014-Aug-20 00:33N 37°40' W 025°46'9 8.5
2014-Aug-19 23:33N 37°46' W 025°54'8 8.5
2014-Aug-19 22:34N 37°52' W 026°02'8 8.3
2014-Aug-19 21:33N 37°58' W 026°09'8 8.2
2014-Aug-19 20:33N 38°04' W 026°16'8 8.1
2014-Aug-19 19:33N 38°10' W 026°22'8 8.0
2014-Aug-19 18:34N 38°16' W 026°29'8 7.9
2014-Aug-19 17:33N 38°22' W 026°36'8 8.3
2014-Aug-19 16:33N 38°28' W 026°43'8 7.8
2014-Aug-19 15:33N 38°34' W 026°50'8 7.9
2014-Aug-19 14:32N 38°40' W 026°56'6 4.8
2014-Aug-19 13:18N 38°43' W 027°03'0 0.0
2014-Aug-19 12:27N 38°43' W 027°03'0 0.0
2014-Aug-19 11:18N 38°43' W 027°03'0 0.0
2014-Aug-19 10:27N 38°43' W 027°03'0 0.0
2014-Aug-19 09:33N 38°43' W 027°03'0 0.0
2014-Aug-19 08:33N 38°43' W 027°03'0 0.0
2014-Aug-19 07:33N 38°43' W 027°03'3 2.6
2014-Aug-19 06:33N 38°42' W 026°60'2 2.3
2014-Aug-19 05:32N 38°45' W 026°60'6 6.6
2014-Aug-19 04:33N 38°49' W 027°05'8 8.3
2014-Aug-19 03:33N 38°50' W 027°16'11 8.0
2014-Aug-19 02:14N 38°52' W 027°29'5 7.9
2014-Aug-19 01:33N 38°52' W 027°36'  

Dump ship's entire track history